Portada
METAR-TAF:

METAR-TAF

Aeroports :

Nanquín, Xina

latitud: 32-00N, longitud: 118-48E, altitud: 12 m

Observació

L'informe es va fer fa 57 minuts, a les 10:00 UTC
Vent 2 kt del Est/Nord-Est
Temperatura 17°C
Humitat 63%
Pressió 1020 hPa
Visibilitat 10 km o més
sense núvols per sota de 1500 mi sense presència de cumulonimbus.

METAR: ZSNJ 311000Z 06001MPS CAVOK 17/10 Q1020 NOSIG

Hora: 18:57 (10:57 UTC)

Pronòstic

L'informe es va fer fa 7 hores i 53 minuts, a les 03:04 UTC
Pronòstic vàlid del 31 a les 06 UTC al 01 a les 06 UTC
Vent 6 kt del Sud/Sud-Est
Visibilitat: 3500 m
boirina
Evolucionant progressivament
l' 31 a les 22 UTC al 31 a les 23 UTC
Visibilitat: 1000 m
Evolucionant progressivament
l' 01 a les 00 UTC al 01 a les 01 UTC
Visibilitat: 3000 m

TAF: ZSNJ 310304Z 3106/0106 15003MPS 3500 BR NSC TX21/3106Z TN13/3122Z BECMG 3122/3123 1000 BECMG 0100/0101 3000

Observacions i pronòstics meteorològics de més de 4000 aeroports (METAR i TAF).

Les estacions disponibles són els punts grocs i vermells al mapa.

Posi el ratolí al punt desitjat per veure el nom de l'estació.

Feu clic per veure les observacions i els pronòstics meteorològics.

Per canviar el mapa: feu clic els botons verds amb una creu de color negre per apropar; al botó verd amb un guió per allunyar la imatge; o en les fletxes verdes per a mapes adjacents.


METAR-TAF: